Time;durP1;ratioP1;P1;durP2;ratioP2;P2;SDS_P1;SDS_P2;PMS_P1;PMS_P2;Temp;Humidity;BMP_temperature;BMP_pressure;BME280_temperature;BME280_humidity;BME280_pressure;Samples;Min_cycle;Max_cycle;Signal;HPM_P1;HPM_P2
2021/01/24 00:02:12;0.00;0.00;0.62;0.00;0.00;0.62;2.00;1.70;;;22.00;27.60;;;;;;2257172;61;20407;-56
2021/01/24 00:04:57;0.00;0.00;0.62;0.00;0.00;0.62;3.00;1.73;;;22.00;27.60;;;;;;2257763;61;20591;-58
2021/01/24 00:07:42;0.00;0.00;0.62;0.00;0.00;0.62;3.63;2.10;;;22.00;27.60;;;;;;2257413;61;20355;-60
2021/01/24 00:10:26;0.00;0.00;0.62;0.00;0.00;0.62;3.60;1.60;;;22.00;27.60;;;;;;2257382;61;20398;-57
2021/01/24 00:13:11;0.00;0.00;0.62;0.00;0.00;0.62;2.63;1.90;;;22.00;27.70;;;;;;2257515;61;20574;-59
2021/01/24 00:15:56;0.00;0.00;0.62;0.00;0.00;0.62;1.90;1.47;;;22.00;27.70;;;;;;2257748;61;20375;-58
2021/01/24 00:18:41;0.00;0.00;0.62;0.00;0.00;0.62;2.50;1.60;;;22.00;27.70;;;;;;2258055;61;20382;-59
2021/01/24 00:21:26;0.00;0.00;0.62;0.00;0.00;0.62;5.20;1.80;;;22.00;27.70;;;;;;2258014;61;20609;-58
2021/01/24 00:24:10;0.00;0.00;0.62;0.00;0.00;0.62;1.97;1.47;;;22.00;27.70;;;;;;2258355;61;20727;-58
2021/01/24 00:26:55;0.00;0.00;0.62;0.00;0.00;0.62;2.23;1.60;;;22.00;27.70;;;;;;2257357;61;20614;-57
2021/01/24 00:29:39;0.00;0.00;0.62;0.00;0.00;0.62;2.30;1.70;;;22.00;27.80;;;;;;2257883;61;20410;-58
2021/01/24 00:32:24;0.00;0.00;0.62;0.00;0.00;0.62;2.40;1.93;;;22.00;27.80;;;;;;2258139;61;20591;-58
2021/01/24 00:35:12;0.00;0.00;0.62;0.00;0.00;0.62;2.97;1.83;;;22.00;27.80;;;;;;2257914;61;20409;-56
2021/01/24 00:37:57;0.00;0.00;0.62;0.00;0.00;0.62;3.20;1.83;;;22.00;27.80;;;;;;2258139;61;20359;-58
2021/01/24 00:40:41;0.00;0.00;0.62;0.00;0.00;0.62;2.00;1.60;;;22.00;27.80;;;;;;2257453;61;20382;-58
2021/01/24 00:43:26;0.00;0.00;0.62;0.00;0.00;0.62;2.40;1.83;;;22.00;28.30;;;;;;2258039;61;20387;-59
2021/01/24 00:46:10;0.00;0.00;0.62;0.00;0.00;0.62;2.13;1.63;;;22.00;27.70;;;;;;2258079;61;20486;-57
2021/01/24 00:48:55;0.00;0.00;0.62;0.00;0.00;0.62;3.07;1.90;;;22.00;27.70;;;;;;2257821;61;20424;-59
2021/01/24 00:51:41;0.00;0.00;0.62;0.00;0.00;0.62;1.80;1.50;;;22.00;27.70;;;;;;2257769;61;20383;-60
2021/01/24 00:54:27;0.00;0.00;0.62;0.00;0.00;0.62;1.63;1.30;;;22.00;27.70;;;;;;2257485;61;20359;-59
2021/01/24 00:57:11;0.00;0.00;0.62;0.00;0.00;0.62;1.70;1.10;;;22.00;27.70;;;;;;2257226;61;20390;-58
2021/01/24 00:59:56;0.00;0.00;0.62;0.00;0.00;0.62;2.57;1.73;;;22.00;27.70;;;;;;2257555;61;20456;-58
2021/01/24 01:02:41;0.00;0.00;0.62;0.00;0.00;0.62;1.63;1.47;;;22.00;27.70;;;;;;2257837;61;20387;-57
2021/01/24 01:05:25;0.00;0.00;0.62;0.00;0.00;0.62;1.90;1.60;;;22.00;27.70;;;;;;2257996;61;20455;-56
2021/01/24 01:08:11;0.00;0.00;0.62;0.00;0.00;0.62;2.00;1.50;;;22.00;27.70;;;;;;2258033;61;20367;-56
2021/01/24 01:10:56;0.00;0.00;0.62;0.00;0.00;0.62;2.23;1.30;;;22.00;27.70;;;;;;2257553;61;20359;-58
2021/01/24 01:13:41;0.00;0.00;0.62;0.00;0.00;0.62;2.37;1.60;;;22.00;27.70;;;;;;2257683;61;20355;-57
2021/01/24 01:16:25;0.00;0.00;0.62;0.00;0.00;0.62;2.57;1.77;;;22.00;27.70;;;;;;2257966;61;20723;-57
2021/01/24 01:19:10;0.00;0.00;0.62;0.00;0.00;0.62;1.90;1.50;;;22.00;27.70;;;;;;2257758;61;20415;-59
2021/01/24 01:21:55;0.00;0.00;0.62;0.00;0.00;0.62;2.10;1.30;;;22.00;27.70;;;;;;2257756;61;20607;-59
2021/01/24 01:24:40;0.00;0.00;0.62;0.00;0.00;0.62;2.20;1.40;;;22.00;27.70;;;;;;2257580;61;20356;-58
2021/01/24 01:27:25;0.00;0.00;0.62;0.00;0.00;0.62;2.50;1.50;;;22.00;27.70;;;;;;2257627;61;20359;-57
2021/01/24 01:30:11;0.00;0.00;0.62;0.00;0.00;0.62;1.40;1.10;;;22.00;27.70;;;;;;2257927;61;20498;-59
2021/01/24 01:32:56;0.00;0.00;0.62;0.00;0.00;0.62;2.03;1.70;;;22.00;27.70;;;;;;2257628;61;20395;-59
2021/01/24 01:35:41;0.00;0.00;0.62;0.00;0.00;0.62;2.87;1.93;;;22.00;27.70;;;;;;2257963;61;20387;-60
2021/01/24 01:38:26;0.00;0.00;0.62;0.00;0.00;0.62;2.20;2.00;;;22.00;27.50;;;;;;2258098;61;20363;-59
2021/01/24 01:41:11;0.00;0.00;0.62;0.00;0.00;0.62;2.50;2.10;;;22.00;27.50;;;;;;2257609;61;20387;-58
2021/01/24 01:43:56;0.00;0.00;0.62;0.00;0.00;0.62;3.00;2.10;;;22.00;27.40;;;;;;2257971;61;20426;-60
2021/01/24 01:46:41;0.00;0.00;0.62;0.00;0.00;0.62;3.10;2.17;;;22.00;27.40;;;;;;2257718;61;20444;-58
2021/01/24 01:49:26;0.00;0.00;0.62;0.00;0.00;0.62;2.53;2.10;;;22.00;27.30;;;;;;2257333;61;20434;-58
2021/01/24 01:52:11;0.00;0.00;0.62;0.00;0.00;0.62;6.03;3.17;;;21.90;27.20;;;;;;2257826;61;20601;-57
2021/01/24 01:54:56;0.00;0.00;0.62;0.00;0.00;0.62;2.60;2.40;;;21.90;27.20;;;;;;2257510;61;20352;-57
2021/01/24 01:57:42;0.00;0.00;0.62;0.00;0.00;0.62;4.63;2.47;;;21.90;27.70;;;;;;2257906;61;20364;-57
2021/01/24 02:00:27;0.00;0.00;0.62;0.00;0.00;0.62;2.90;2.67;;;21.90;27.10;;;;;;2257360;61;20401;-56
2021/01/24 02:03:37;0.00;0.00;0.62;0.00;0.00;0.62;2.50;2.30;;;21.90;27.10;;;;;;2257642;61;20711;-54
2021/01/24 02:06:31;0.00;0.00;0.62;0.00;0.00;0.62;2.87;2.67;;;21.80;27.10;;;;;;2257583;61;20594;-59
2021/01/24 02:09:25;0.00;0.00;0.62;0.00;0.00;0.62;2.90;2.60;;;21.80;27.00;;;;;;2257647;61;20363;-59
2021/01/24 02:12:18;0.00;0.00;0.62;0.00;0.00;0.62;2.50;2.20;;;21.80;27.00;;;;;;2257455;61;20403;-58
2021/01/24 02:15:07;0.00;0.00;0.62;0.00;0.00;0.62;4.43;2.70;;;21.80;27.00;;;;;;2257725;61;20712;-58
2021/01/24 02:17:59;0.00;0.00;0.62;0.00;0.00;0.62;3.23;2.70;;;21.80;27.00;;;;;;2257727;61;20495;-57
2021/01/24 02:20:53;0.00;0.00;0.62;0.00;0.00;0.62;3.07;2.60;;;21.70;26.90;;;;;;2257389;61;20575;-57
2021/01/24 02:23:40;0.00;0.00;0.62;0.00;0.00;0.62;2.83;2.47;;;21.70;26.90;;;;;;2516438;53;20432;-56
2021/01/24 02:26:36;0.00;0.00;0.62;0.00;0.00;0.62;2.70;2.50;;;21.70;26.90;;;;;;2253798;61;20590;-55
2021/01/24 02:29:36;0.00;0.00;0.62;0.00;0.00;0.62;2.70;2.50;;;21.70;26.90;;;;;;2253670;61;20772;-58
2021/01/24 02:32:24;0.00;0.00;0.62;0.00;0.00;0.62;3.63;3.20;;;21.70;26.90;;;;;;2253784;61;20423;-58
2021/01/24 02:35:10;0.00;0.00;0.62;0.00;0.00;0.62;3.63;3.00;;;21.70;26.90;;;;;;2253226;61;20372;-57
2021/01/24 02:37:58;0.00;0.00;0.62;0.00;0.00;0.62;3.80;3.03;;;21.70;26.90;;;;;;2253633;61;20747;-58
2021/01/24 02:40:42;0.00;0.00;0.62;0.00;0.00;0.62;2.90;2.60;;;21.60;26.80;;;;;;2253766;61;20348;-57
2021/01/24 02:43:28;0.00;0.00;0.62;0.00;0.00;0.62;3.07;2.20;;;21.60;26.80;;;;;;2255891;61;20364;-59
2021/01/24 02:46:15;0.00;0.00;0.62;0.00;0.00;0.62;3.60;2.70;;;21.60;26.80;;;;;;2253646;61;20367;-58
2021/01/24 02:49:01;0.00;0.00;0.62;0.00;0.00;0.62;3.40;2.70;;;21.60;26.80;;;;;;2253581;61;20360;-56
2021/01/24 02:51:46;0.00;0.00;0.62;0.00;0.00;0.62;3.23;2.90;;;21.50;26.80;;;;;;2253575;61;20408;-56
2021/01/24 02:54:32;0.00;0.00;0.62;0.00;0.00;0.62;2.87;2.53;;;21.50;26.80;;;;;;2256102;61;20572;-59
2021/01/24 02:57:17;0.00;0.00;0.62;0.00;0.00;0.62;2.80;2.60;;;21.50;26.80;;;;;;2253227;61;20399;-57
2021/01/24 03:00:04;0.00;0.00;0.62;0.00;0.00;0.62;3.70;2.73;;;21.50;26.80;;;;;;2256066;61;20763;-57
2021/01/24 03:02:49;0.00;0.00;0.62;0.00;0.00;0.62;3.30;3.00;;;21.50;26.80;;;;;;2257690;61;20387;-57
2021/01/24 03:05:35;0.00;0.00;0.62;0.00;0.00;0.62;4.27;2.97;;;21.40;26.70;;;;;;2257550;61;20578;-57
2021/01/24 03:08:20;0.00;0.00;0.62;0.00;0.00;0.62;3.70;2.70;;;21.40;26.70;;;;;;2257756;61;20693;-57
2021/01/24 03:11:09;0.00;0.00;0.62;0.00;0.00;0.62;3.30;2.73;;;21.40;26.70;;;;;;2257025;61;20379;-59
2021/01/24 03:14:01;0.00;0.00;0.62;0.00;0.00;0.62;3.07;2.73;;;21.40;26.70;;;;;;2257659;61;20416;-59
2021/01/24 03:16:49;0.00;0.00;0.62;0.00;0.00;0.62;4.10;2.67;;;21.40;26.70;;;;;;2257248;61;20399;-58
2021/01/24 03:19:36;0.00;0.00;0.62;0.00;0.00;0.62;3.97;3.13;;;21.40;26.60;;;;;;2257338;61;20694;-58
2021/01/24 03:22:22;0.00;0.00;0.62;0.00;0.00;0.62;4.53;4.13;;;21.40;26.60;;;;;;2257503;61;20613;-59
2021/01/24 03:25:08;0.00;0.00;0.62;0.00;0.00;0.62;3.43;3.10;;;21.30;26.50;;;;;;2257478;61;20370;-58
2021/01/24 03:27:53;0.00;0.00;0.62;0.00;0.00;0.62;3.40;3.10;;;21.30;26.50;;;;;;2257601;61;20569;-57
2021/01/24 03:30:38;0.00;0.00;0.62;0.00;0.00;0.62;3.67;3.37;;;21.30;26.50;;;;;;2257409;61;20709;-58
2021/01/24 03:33:23;0.00;0.00;0.62;0.00;0.00;0.62;3.57;3.07;;;21.30;26.50;;;;;;2257585;61;20395;-56
2021/01/24 03:36:08;0.00;0.00;0.62;0.00;0.00;0.62;3.33;3.03;;;21.20;26.50;;;;;;2257677;61;20378;-56
2021/01/24 03:38:53;0.00;0.00;0.62;0.00;0.00;0.62;3.20;2.80;;;21.20;26.50;;;;;;2257237;61;20391;-58
2021/01/24 03:41:38;0.00;0.00;0.62;0.00;0.00;0.62;3.97;3.57;;;21.20;26.50;;;;;;2257213;61;20391;-59
2021/01/24 03:44:23;0.00;0.00;0.62;0.00;0.00;0.62;3.60;3.30;;;21.20;26.50;;;;;;2257648;61;20363;-58
2021/01/24 03:47:08;0.00;0.00;0.62;0.00;0.00;0.62;3.40;3.03;;;21.20;26.50;;;;;;2257550;61;20646;-56
2021/01/24 03:49:52;0.00;0.00;0.62;0.00;0.00;0.62;3.37;3.07;;;21.20;26.50;;;;;;2257587;61;20363;-58
2021/01/24 03:52:37;0.00;0.00;0.62;0.00;0.00;0.62;4.20;3.53;;;21.20;26.50;;;;;;2257351;61;20430;-58
2021/01/24 03:55:23;0.00;0.00;0.62;0.00;0.00;0.62;3.53;3.23;;;21.20;26.50;;;;;;2257455;61;20441;-59
2021/01/24 03:58:07;0.00;0.00;0.62;0.00;0.00;0.62;3.53;3.23;;;21.20;26.50;;;;;;2257490;61;20382;-58
2021/01/24 04:00:52;0.00;0.00;0.62;0.00;0.00;0.62;3.80;3.50;;;21.10;26.40;;;;;;2257178;61;20415;-59
2021/01/24 04:03:36;0.00;0.00;0.62;0.00;0.00;0.62;3.50;2.90;;;21.10;26.40;;;;;;2257600;61;20363;-59
2021/01/24 04:06:21;0.00;0.00;0.62;0.00;0.00;0.62;4.20;3.80;;;21.10;26.50;;;;;;2257559;61;20362;-59
2021/01/24 04:09:06;0.00;0.00;0.62;0.00;0.00;0.62;4.10;3.70;;;21.10;26.50;;;;;;2257288;61;20363;-59
2021/01/24 04:11:51;0.00;0.00;0.62;0.00;0.00;0.62;3.60;2.43;;;21.10;26.50;;;;;;2257348;61;20383;-57
2021/01/24 04:14:37;0.00;0.00;0.62;0.00;0.00;0.62;3.80;3.50;;;21.00;26.40;;;;;;2257330;61;20387;-59
2021/01/24 04:17:22;0.00;0.00;0.62;0.00;0.00;0.62;3.53;3.23;;;21.00;26.40;;;;;;2257539;61;20360;-59
2021/01/24 04:20:08;0.00;0.00;0.62;0.00;0.00;0.62;4.10;3.47;;;21.00;26.40;;;;;;2257256;61;20647;-59
2021/01/24 04:22:52;0.00;0.00;0.62;0.00;0.00;0.62;3.93;3.53;;;21.00;26.40;;;;;;2257376;61;20790;-57
2021/01/24 04:25:37;0.00;0.00;0.62;0.00;0.00;0.62;5.10;3.80;;;21.00;26.40;;;;;;2257615;61;20701;-58
2021/01/24 04:28:23;0.00;0.00;0.62;0.00;0.00;0.62;4.00;3.20;;;21.00;26.40;;;;;;2257443;61;20391;-58
2021/01/24 04:31:08;0.00;0.00;0.62;0.00;0.00;0.62;3.00;2.70;;;21.00;26.40;;;;;;2257452;61;20616;-58
2021/01/24 04:33:52;0.00;0.00;0.62;0.00;0.00;0.62;4.10;3.70;;;21.00;26.40;;;;;;2256721;61;20406;-59
2021/01/24 04:36:37;0.00;0.00;0.62;0.00;0.00;0.62;5.23;4.20;;;21.00;26.40;;;;;;2257412;61;20367;-57
2021/01/24 04:39:22;0.00;0.00;0.62;0.00;0.00;0.62;3.70;3.40;;;20.90;26.40;;;;;;2257482;61;20768;-58
2021/01/24 04:42:08;0.00;0.00;0.62;0.00;0.00;0.62;3.40;3.10;;;20.90;26.30;;;;;;2257197;61;20701;-58
2021/01/24 04:44:55;0.00;0.00;0.62;0.00;0.00;0.62;3.90;3.60;;;20.90;26.30;;;;;;2257491;61;20359;-58
2021/01/24 04:47:43;0.00;0.00;0.62;0.00;0.00;0.62;4.27;3.87;;;20.90;26.30;;;;;;2257268;61;20815;-55
2021/01/24 04:50:28;0.00;0.00;0.62;0.00;0.00;0.62;4.80;4.20;;;20.90;26.30;;;;;;2257248;61;20340;-59
2021/01/24 04:53:13;0.00;0.00;0.62;0.00;0.00;0.62;4.60;3.90;;;20.90;26.30;;;;;;2257458;61;20383;-56
2021/01/24 04:55:59;0.00;0.00;0.62;0.00;0.00;0.62;4.40;4.00;;;20.90;26.30;;;;;;2256699;61;20590;-58
2021/01/24 04:58:44;0.00;0.00;0.62;0.00;0.00;0.62;4.07;3.67;;;20.90;26.30;;;;;;2257334;61;20368;-56
2021/01/24 05:01:32;0.00;0.00;0.62;0.00;0.00;0.62;4.20;3.80;;;20.80;26.30;;;;;;2257218;61;20621;-57
2021/01/24 05:04:17;0.00;0.00;0.62;0.00;0.00;0.62;4.23;3.70;;;20.80;26.20;;;;;;2257874;61;20367;-60
2021/01/24 05:07:02;0.00;0.00;0.62;0.00;0.00;0.62;4.30;3.90;;;20.80;26.30;;;;;;2257966;61;20436;-59
2021/01/24 05:09:47;0.00;0.00;0.62;0.00;0.00;0.62;4.13;3.73;;;20.80;26.20;;;;;;2257596;61;20387;-60
2021/01/24 05:12:31;0.00;0.00;0.62;0.00;0.00;0.62;5.03;4.20;;;20.80;26.20;;;;;;2257989;61;20414;-59
2021/01/24 05:15:17;0.00;0.00;0.62;0.00;0.00;0.62;4.47;4.00;;;20.80;26.20;;;;;;2258035;61;20432;-59
2021/01/24 05:18:04;0.00;0.00;0.62;0.00;0.00;0.62;4.23;3.90;;;20.80;26.20;;;;;;2257830;61;20769;-58
2021/01/24 05:20:52;0.00;0.00;0.62;0.00;0.00;0.62;3.80;3.50;;;20.80;26.20;;;;;;2257758;61;20395;-58
2021/01/24 05:23:37;0.00;0.00;0.62;0.00;0.00;0.62;4.50;4.10;;;20.70;26.20;;;;;;2678721;45;20414;-60
2021/01/24 05:26:25;0.00;0.00;0.62;0.00;0.00;0.62;4.10;3.70;;;20.70;26.20;;;;;;2254055;61;20392;-59
2021/01/24 05:29:19;0.00;0.00;0.62;0.00;0.00;0.62;4.10;3.70;;;20.70;26.20;;;;;;2253854;61;20780;-58
2021/01/24 05:32:05;0.00;0.00;0.62;0.00;0.00;0.62;4.77;4.10;;;20.70;26.20;;;;;;2253783;61;20453;-58
2021/01/24 05:34:51;0.00;0.00;0.62;0.00;0.00;0.62;3.97;3.67;;;20.70;26.20;;;;;;2254020;61;20621;-57
2021/01/24 05:37:37;0.00;0.00;0.62;0.00;0.00;0.62;4.80;3.97;;;20.70;26.20;;;;;;2253698;61;20420;-57
2021/01/24 05:40:21;0.00;0.00;0.62;0.00;0.00;0.62;4.03;3.70;;;20.70;26.20;;;;;;2253557;61;20618;-60
2021/01/24 05:43:06;0.00;0.00;0.62;0.00;0.00;0.62;4.53;4.13;;;20.70;26.20;;;;;;2254008;61;20976;-55
2021/01/24 05:45:52;0.00;0.00;0.62;0.00;0.00;0.62;4.57;4.17;;;20.60;26.10;;;;;;2253738;61;20363;-59
2021/01/24 05:48:47;0.00;0.00;0.62;0.00;0.00;0.62;3.77;3.47;;;20.60;26.10;;;;;;2253937;61;20364;-59
2021/01/24 05:51:33;0.00;0.00;0.62;0.00;0.00;0.62;4.13;3.70;;;20.60;26.10;;;;;;2253638;61;20396;-56
2021/01/24 05:54:17;0.00;0.00;0.62;0.00;0.00;0.62;4.33;3.90;;;20.60;26.10;;;;;;2253840;61;20708;-59
2021/01/24 05:57:02;0.00;0.00;0.62;0.00;0.00;0.62;4.30;3.90;;;20.60;26.10;;;;;;2253956;61;20410;-57
2021/01/24 05:59:55;0.00;0.00;0.62;0.00;0.00;0.62;4.37;3.90;;;20.60;26.10;;;;;;2255749;61;20404;-57
2021/01/24 06:02:40;0.00;0.00;0.62;0.00;0.00;0.62;5.60;3.73;;;20.60;26.10;;;;;;2257829;61;20375;-58
2021/01/24 06:05:25;0.00;0.00;0.62;0.00;0.00;0.62;5.07;3.90;;;20.60;26.10;;;;;;2257867;61;20454;-58
2021/01/24 06:08:14;0.00;0.00;0.62;0.00;0.00;0.62;3.93;3.63;;;20.50;26.00;;;;;;2257818;61;20464;-59
2021/01/24 06:10:59;0.00;0.00;0.62;0.00;0.00;0.62;4.50;3.77;;;20.50;26.00;;;;;;2257835;61;20831;-55
2021/01/24 06:13:46;0.00;0.00;0.62;0.00;0.00;0.62;5.17;4.20;;;20.50;26.00;;;;;;2257638;61;20353;-59
2021/01/24 06:16:39;0.00;0.00;0.62;0.00;0.00;0.62;5.90;4.00;;;20.50;26.00;;;;;;2257889;61;20443;-57
2021/01/24 06:19:30;0.00;0.00;0.62;0.00;0.00;0.62;4.93;4.17;;;20.50;26.00;;;;;;2257921;61;20382;-56
2021/01/24 06:22:18;0.00;0.00;0.62;0.00;0.00;0.62;5.00;4.50;;;20.50;26.00;;;;;;2257810;61;20387;-57
2021/01/24 06:25:12;0.00;0.00;0.62;0.00;0.00;0.62;4.30;3.70;;;20.50;26.00;;;;;;2257850;61;20356;-57
2021/01/24 06:28:04;0.00;0.00;0.62;0.00;0.00;0.62;5.13;4.73;;;20.50;26.10;;;;;;2257684;61;20510;-54
2021/01/24 06:30:50;0.00;0.00;0.62;0.00;0.00;0.62;4.43;4.03;;;20.50;26.00;;;;;;2257735;61;20605;-59
2021/01/24 06:33:35;0.00;0.00;0.62;0.00;0.00;0.62;4.17;3.77;;;20.40;26.00;;;;;;2257699;61;20399;-57
2021/01/24 06:36:20;0.00;0.00;0.62;0.00;0.00;0.62;5.13;4.10;;;20.40;26.00;;;;;;2257721;61;20367;-57
2021/01/24 06:39:05;0.00;0.00;0.62;0.00;0.00;0.62;4.30;3.90;;;20.40;26.00;;;;;;2257744;61;20383;-59
2021/01/24 06:41:51;0.00;0.00;0.62;0.00;0.00;0.62;4.73;4.00;;;20.40;26.00;;;;;;2257776;61;20423;-56
2021/01/24 06:44:40;0.00;0.00;0.62;0.00;0.00;0.62;4.90;4.40;;;20.40;25.90;;;;;;2258081;61;20510;-57
2021/01/24 06:47:40;0.00;0.00;0.62;0.00;0.00;0.62;5.47;4.30;;;20.40;26.00;;;;;;2257665;61;20359;-58
2021/01/24 06:50:43;0.00;0.00;0.62;0.00;0.00;0.62;4.40;3.93;;;20.40;26.00;;;;;;2257460;61;20356;-58
2021/01/24 06:53:28;0.00;0.00;0.62;0.00;0.00;0.62;4.47;4.07;;;20.30;25.90;;;;;;2257772;61;20363;-58
2021/01/24 06:56:16;0.00;0.00;0.62;0.00;0.00;0.62;4.30;3.87;;;20.30;25.90;;;;;;2257787;61;20363;-58
2021/01/24 06:59:02;0.00;0.00;0.62;0.00;0.00;0.62;5.53;4.50;;;20.30;25.90;;;;;;2257705;61;20423;-59
2021/01/24 07:01:46;0.00;0.00;0.62;0.00;0.00;0.62;4.53;4.07;;;20.30;25.90;;;;;;2257227;61;20391;-58
2021/01/24 07:04:31;0.00;0.00;0.62;0.00;0.00;0.62;6.17;3.93;;;20.30;25.90;;;;;;2257697;61;20723;-58
2021/01/24 07:07:34;0.00;0.00;0.62;0.00;0.00;0.62;5.30;4.40;;;20.30;25.90;;;;;;2257472;61;20675;-58
2021/01/24 07:10:42;0.00;0.00;0.62;0.00;0.00;0.62;4.40;4.00;;;20.30;25.90;;;;;;2257613;61;20479;-56
2021/01/24 07:13:35;0.00;0.00;0.62;0.00;0.00;0.62;5.67;4.40;;;20.30;25.90;;;;;;2257508;61;20619;-58
2021/01/24 07:16:21;0.00;0.00;0.62;0.00;0.00;0.62;3.60;3.30;;;20.30;25.90;;;;;;2257154;61;20375;-59
2021/01/24 07:19:06;0.00;0.00;0.62;0.00;0.00;0.62;4.77;4.37;;;20.30;25.90;;;;;;2257429;61;20717;-59
2021/01/24 07:21:51;0.00;0.00;0.62;0.00;0.00;0.62;3.87;3.53;;;20.20;25.80;;;;;;2257405;61;20433;-58
2021/01/24 07:24:37;0.00;0.00;0.62;0.00;0.00;0.62;3.43;3.13;;;20.20;25.80;;;;;;2257373;61;20436;-57
2021/01/24 07:27:23;0.00;0.00;0.62;0.00;0.00;0.62;4.90;4.40;;;20.20;25.80;;;;;;2257424;61;20371;-58
2021/01/24 07:30:10;0.00;0.00;0.62;0.00;0.00;0.62;4.50;4.10;;;20.20;25.80;;;;;;2257225;61;20487;-54
2021/01/24 07:32:56;0.00;0.00;0.62;0.00;0.00;0.62;4.50;4.10;;;20.20;25.80;;;;;;2257439;61;20755;-53
2021/01/24 07:35:40;0.00;0.00;0.62;0.00;0.00;0.62;5.23;4.60;;;20.20;25.80;;;;;;2257546;61;20370;-59
2021/01/24 07:38:27;0.00;0.00;0.62;0.00;0.00;0.62;4.50;4.10;;;20.20;25.80;;;;;;2257217;61;20704;-57
2021/01/24 07:41:11;0.00;0.00;0.62;0.00;0.00;0.62;4.13;3.73;;;20.20;25.80;;;;;;2257330;61;20379;-60
2021/01/24 07:43:56;0.00;0.00;0.62;0.00;0.00;0.62;3.73;3.37;;;20.20;25.80;;;;;;2257664;61;20367;-55
2021/01/24 07:46:40;0.00;0.00;0.62;0.00;0.00;0.62;3.90;3.50;;;20.20;26.40;;;;;;2257328;61;20383;-55
2021/01/24 07:49:26;0.00;0.00;0.62;0.00;0.00;0.62;4.03;3.63;;;20.10;25.80;;;;;;2257422;61;20351;-57
2021/01/24 07:52:11;0.00;0.00;0.62;0.00;0.00;0.62;3.90;3.30;;;20.10;25.80;;;;;;2257203;61;20387;-57
2021/01/24 07:54:57;0.00;0.00;0.62;0.00;0.00;0.62;4.10;3.43;;;20.10;25.80;;;;;;2257371;61;20728;-56
2021/01/24 07:57:41;0.00;0.00;0.62;0.00;0.00;0.62;3.80;3.50;;;20.10;25.80;;;;;;2257314;61;20363;-56
2021/01/24 08:00:26;0.00;0.00;0.62;0.00;0.00;0.62;3.90;3.50;;;20.10;26.30;;;;;;2256313;61;20398;-58
2021/01/24 08:03:11;0.00;0.00;0.62;0.00;0.00;0.62;3.43;3.13;;;20.10;25.80;;;;;;2257415;61;20410;-58
2021/01/24 08:06:06;0.00;0.00;0.62;0.00;0.00;0.62;4.40;3.70;;;20.10;25.80;;;;;;2257252;61;20355;-59
2021/01/24 08:08:51;0.00;0.00;0.62;0.00;0.00;0.62;3.73;3.40;;;20.10;25.80;;;;;;2257263;61;20371;-60
2021/01/24 08:11:36;0.00;0.00;0.62;0.00;0.00;0.62;4.70;3.20;;;20.10;25.80;;;;;;2257142;61;20391;-58
2021/01/24 08:14:21;0.00;0.00;0.62;0.00;0.00;0.62;6.13;3.33;;;20.10;25.80;;;;;;2257486;61;20367;-57
2021/01/24 08:17:08;0.00;0.00;0.62;0.00;0.00;0.62;4.77;3.80;;;20.00;25.70;;;;;;2257315;61;20362;-58
2021/01/24 08:19:55;0.00;0.00;0.62;0.00;0.00;0.62;4.03;3.63;;;20.10;25.80;;;;;;2257055;61;20411;-56
2021/01/24 08:22:41;0.00;0.00;0.62;0.00;0.00;0.62;4.30;3.90;;;20.00;25.70;;;;;;2257374;61;20755;-58
2021/01/24 08:25:25;0.00;0.00;0.62;0.00;0.00;0.62;4.50;3.60;;;20.00;25.70;;;;;;2257672;61;20836;-60
2021/01/24 08:28:11;0.00;0.00;0.62;0.00;0.00;0.62;3.53;3.23;;;20.00;25.70;;;;;;2257663;61;20391;-61
2021/01/24 08:30:59;0.00;0.00;0.62;0.00;0.00;0.62;3.53;3.07;;;20.00;25.80;;;;;;2257312;61;20398;-60
2021/01/24 08:33:46;0.00;0.00;0.62;0.00;0.00;0.62;4.40;3.10;;;20.00;25.80;;;;;;2257233;61;20387;-61
2021/01/24 08:36:31;0.00;0.00;0.62;0.00;0.00;0.62;3.80;3.10;;;20.00;25.80;;;;;;2257130;61;20593;-60
2021/01/24 08:39:23;0.00;0.00;0.62;0.00;0.00;0.62;4.60;3.83;;;20.00;25.80;;;;;;2258088;61;20402;-62
2021/01/24 08:42:08;0.00;0.00;0.62;0.00;0.00;0.62;3.60;2.80;;;20.00;25.80;;;;;;2257869;61;20387;-61
2021/01/24 08:45:01;0.00;0.00;0.62;0.00;0.00;0.62;3.40;3.10;;;20.00;25.80;;;;;;2258125;61;20386;-60
2021/01/24 08:47:54;0.00;0.00;0.62;0.00;0.00;0.62;3.20;2.90;;;20.00;25.90;;;;;;2258013;61;20363;-60
2021/01/24 08:50:39;0.00;0.00;0.62;0.00;0.00;0.62;4.47;3.20;;;20.10;25.90;;;;;;2257961;61;20632;-59
2021/01/24 08:53:27;0.00;0.00;0.62;0.00;0.00;0.62;3.40;3.10;;;20.00;25.90;;;;;;2257919;61;20363;-60
2021/01/24 08:56:21;0.00;0.00;0.62;0.00;0.00;0.62;3.10;2.80;;;20.00;25.90;;;;;;2257201;61;20580;-61
2021/01/24 08:59:17;0.00;0.00;0.62;0.00;0.00;0.62;3.40;3.10;;;20.00;25.90;;;;;;2257105;61;20498;-60
2021/01/24 09:02:02;0.00;0.00;0.62;0.00;0.00;0.62;3.87;2.80;;;20.00;25.90;;;;;;2257250;61;20387;-57
2021/01/24 09:04:47;0.00;0.00;0.62;0.00;0.00;0.62;3.20;2.67;;;20.00;25.90;;;;;;2257903;61;20418;-61
2021/01/24 09:07:38;0.00;0.00;0.62;0.00;0.00;0.62;4.50;3.33;;;20.00;25.90;;;;;;2257436;61;20363;-60
2021/01/24 09:10:24;0.00;0.00;0.62;0.00;0.00;0.62;3.60;3.00;;;20.00;25.80;;;;;;2257991;61;20399;-61
2021/01/24 09:13:10;0.00;0.00;0.62;0.00;0.00;0.62;3.37;3.00;;;20.00;25.80;;;;;;2257725;61;20375;-62
2021/01/24 09:16:00;0.00;0.00;0.62;0.00;0.00;0.62;5.80;3.70;;;20.10;25.90;;;;;;2256611;61;20366;-59
2021/01/24 09:18:44;0.00;0.00;0.62;0.00;0.00;0.62;3.40;3.00;;;20.00;25.90;;;;;;2258417;61;20379;-61
2021/01/24 09:21:29;0.00;0.00;0.62;0.00;0.00;0.62;4.13;3.73;;;20.00;25.90;;;;;;2258072;61;20399;-61
2021/01/24 09:24:13;0.00;0.00;0.62;0.00;0.00;0.62;3.70;3.40;;;20.00;25.90;;;;;;2257167;61;20652;-65
2021/01/24 09:26:58;0.00;0.00;0.62;0.00;0.00;0.62;5.07;3.70;;;20.00;25.90;;;;;;2258255;61;20380;-68
2021/01/24 09:29:44;0.00;0.00;0.62;0.00;0.00;0.62;3.93;3.50;;;20.10;26.00;;;;;;2258200;61;20390;-64
2021/01/24 09:32:28;0.00;0.00;0.62;0.00;0.00;0.62;4.80;4.30;;;20.10;26.00;;;;;;2256949;61;20383;-53
2021/01/24 09:35:13;0.00;0.00;0.62;0.00;0.00;0.62;5.20;4.00;;;20.10;26.00;;;;;;2258255;61;20378;-53
2021/01/24 09:37:58;0.00;0.00;0.62;0.00;0.00;0.62;3.97;3.43;;;20.10;25.90;;;;;;2257707;61;20727;-56
2021/01/24 09:40:43;0.00;0.00;0.62;0.00;0.00;0.62;5.10;3.67;;;20.10;25.80;;;;;;2257654;61;20782;-59
2021/01/24 09:43:27;0.00;0.00;0.62;0.00;0.00;0.62;4.23;3.53;;;20.10;25.80;;;;;;2258139;61;20406;-56
2021/01/24 09:46:13;0.00;0.00;0.62;0.00;0.00;0.62;3.63;3.33;;;20.10;25.80;;;;;;2257185;61;20383;-56
2021/01/24 09:48:58;0.00;0.00;0.62;0.00;0.00;0.62;4.73;3.90;;;20.10;25.80;;;;;;2258141;61;20367;-56
2021/01/24 09:51:43;0.00;0.00;0.62;0.00;0.00;0.62;3.67;3.23;;;20.00;25.80;;;;;;2257873;61;20459;-57
2021/01/24 09:54:28;0.00;0.00;0.62;0.00;0.00;0.62;8.07;3.90;;;20.10;25.90;;;;;;2256909;61;20399;-54
2021/01/24 09:57:13;0.00;0.00;0.62;0.00;0.00;0.62;3.60;3.00;;;20.00;25.90;;;;;;2258101;61;20774;-52
2021/01/24 09:59:58;0.00;0.00;0.62;0.00;0.00;0.62;3.43;2.80;;;20.00;25.90;;;;;;2257957;61;20392;-52
2021/01/24 10:02:43;0.00;0.00;0.62;0.00;0.00;0.62;4.70;2.90;;;20.00;25.90;;;;;;2257723;61;20426;-59
2021/01/24 10:05:28;0.00;0.00;0.62;0.00;0.00;0.62;3.83;3.00;;;20.00;25.90;;;;;;2258191;61;20465;-58
2021/01/24 10:08:12;0.00;0.00;0.62;0.00;0.00;0.62;3.83;3.00;;;20.00;26.00;;;;;;2257097;61;20375;-59
2021/01/24 10:10:57;0.00;0.00;0.62;0.00;0.00;0.62;3.47;2.37;;;20.00;26.00;;;;;;2257645;61;20379;-54
2021/01/24 10:13:42;0.00;0.00;0.62;0.00;0.00;0.62;2.53;2.30;;;20.00;26.00;;;;;;2258238;61;20386;-57
2021/01/24 10:16:29;0.00;0.00;0.62;0.00;0.00;0.62;3.23;2.73;;;20.00;26.00;;;;;;2256780;61;20363;-54
2021/01/24 10:19:14;0.00;0.00;0.62;0.00;0.00;0.62;3.20;2.40;;;19.90;26.00;;;;;;2258107;61;20390;-59
2021/01/24 10:21:59;0.00;0.00;0.62;0.00;0.00;0.62;2.60;2.40;;;19.90;26.00;;;;;;2257838;61;20395;-55
2021/01/24 10:24:43;0.00;0.00;0.62;0.00;0.00;0.62;2.93;2.63;;;19.90;26.10;;;;;;2257186;61;20624;-52
2021/01/24 10:27:28;0.00;0.00;0.62;0.00;0.00;0.62;2.97;2.40;;;19.90;26.10;;;;;;2258121;61;20655;-54
2021/01/24 10:30:15;0.00;0.00;0.62;0.00;0.00;0.62;3.53;2.63;;;20.00;26.20;;;;;;2256603;61;20955;-55
2021/01/24 10:33:00;0.00;0.00;0.62;0.00;0.00;0.62;3.37;2.80;;;19.90;26.20;;;;;;2257674;61;20398;-56
2021/01/24 10:35:47;0.00;0.00;0.62;0.00;0.00;0.62;2.40;2.20;;;19.90;26.20;;;;;;2258061;61;20359;-53
2021/01/24 10:38:31;0.00;0.00;0.62;0.00;0.00;0.62;2.60;2.40;;;20.00;26.30;;;;;;2256724;61;20871;-52
2021/01/24 10:41:16;0.00;0.00;0.62;0.00;0.00;0.62;3.93;3.27;;;19.90;26.20;;;;;;2257863;61;20596;-57
2021/01/24 10:44:00;0.00;0.00;0.62;0.00;0.00;0.62;2.70;2.50;;;19.90;26.20;;;;;;2257985;61;20411;-53
2021/01/24 10:46:45;0.00;0.00;0.62;0.00;0.00;0.62;2.50;2.30;;;19.90;26.20;;;;;;2256763;61;20396;-52
2021/01/24 10:49:31;0.00;0.00;0.62;0.00;0.00;0.62;3.70;2.10;;;20.00;26.90;;;;;;2258071;61;20374;-55
2021/01/24 10:52:17;0.00;0.00;0.62;0.00;0.00;0.62;2.40;2.20;;;19.90;26.30;;;;;;2256976;61;20414;-53
2021/01/24 10:55:02;0.00;0.00;0.62;0.00;0.00;0.62;2.50;2.30;;;19.90;26.30;;;;;;2257606;61;20391;-52
2021/01/24 10:57:47;0.00;0.00;0.62;0.00;0.00;0.62;2.40;1.97;;;19.90;26.30;;;;;;2257998;61;20580;-54